Terminal Aerodrome Forecast
Issued by NWS

Home | Current Version | Previous Version | Text Only | Print | Product List | Glossary On
Versions: 1 2 3 4 5 6 7 8 9 10 11 12 13
947
FTUS46 KSEW 230534
TAFHQM
TAF
KHQM 230534Z 2306/2406 06008KT P6SM VCSH SCT040 BKN060 BKN200
     FM232000 07006KT P6SM SCT080 BKN200
     FM232300 36006KT P6SM BKN200=

USA.gov is the U.S. government's official web portal to all federal, state and local government web resources and services.